Mazy — 9HB2808 — position and weather

sailwx.info

Track history (hours):
 
Tides and Currents Weather Stations Pressure Air Temp Water Temp Dewpoint Dewpoint Depression Visibility Wind Speed Wind Dir Waves Ship Positions

Mazy

Last reported at 2015-Jul-02 07:32 UTC. Time now 2015-Jul-02 08:05 UTC.
Position N 37°25' E 025°21'.

Length 39 m; draft 2.3 m.

MMSI: 229043000.

Date/timePositionNaut miles runAvg speedWind from/ knotsBaromVisibWave heightAir tempDewpointWater temp
2015-Jul-02 07:32N 37°25' E 025°21'0 0.0
2015-Jul-02 06:32N 37°25' E 025°21'0 0.0
2015-Jul-02 05:32N 37°25' E 025°21'0 0.0
2015-Jul-02 04:32N 37°25' E 025°21'0 0.0
2015-Jul-02 03:32N 37°25' E 025°21'0 0.0
2015-Jul-02 02:32N 37°25' E 025°21'0 0.0
2015-Jul-02 01:32N 37°25' E 025°21'0 0.0
2015-Jul-02 00:32N 37°25' E 025°21'0 0.0
2015-Jul-01 23:32N 37°25' E 025°21'0 0.0
2015-Jul-01 22:32N 37°25' E 025°21'0 0.0
2015-Jul-01 21:32N 37°25' E 025°21'0 0.0
2015-Jul-01 20:32N 37°25' E 025°21'0 0.0
2015-Jul-01 19:32N 37°25' E 025°21'0 0.0
2015-Jul-01 18:32N 37°25' E 025°21'0 0.0
2015-Jul-01 17:32N 37°25' E 025°21'0 0.0
2015-Jul-01 16:32N 37°25' E 025°21'0 0.0
2015-Jul-01 15:32N 37°25' E 025°21'0 0.0
2015-Jul-01 14:32N 37°25' E 025°21'0 0.0
2015-Jul-01 13:32N 37°25' E 025°21'0 0.0
2015-Jul-01 12:32N 37°25' E 025°21'0 0.0
2015-Jul-01 11:32N 37°25' E 025°21'0 0.0
2015-Jul-01 10:32N 37°25' E 025°21'0 0.0
2015-Jul-01 09:29N 37°25' E 025°21'0 0.0
2015-Jul-01 08:32N 37°25' E 025°21'0 0.0
2015-Jul-01 07:33N 37°25' E 025°21'3 3.4
2015-Jul-01 06:33N 37°23' E 025°18'10 9.9
2015-Jul-01 05:33N 37°13' E 025°14'6 5.4
2015-Jul-01 04:32N 37°07' E 025°14'0 0.0
2015-Jul-01 03:32N 37°07' E 025°14'0 0.0
2015-Jul-01 02:32N 37°07' E 025°14'0 0.0
2015-Jul-01 01:32N 37°07' E 025°14'0 0.0
2015-Jul-01 00:32N 37°07' E 025°14'0 0.0
2015-Jun-30 23:32N 37°07' E 025°14'0 0.0
2015-Jun-30 22:32N 37°07' E 025°14'0 0.0
2015-Jun-30 21:32N 37°07' E 025°14'0 0.0
2015-Jun-30 20:32N 37°07' E 025°14'0 0.0
2015-Jun-30 19:32N 37°07' E 025°14'0 0.0
2015-Jun-30 18:32N 37°07' E 025°14'0 0.0
2015-Jun-30 17:32N 37°07' E 025°14'0 0.0
2015-Jun-30 16:26N 37°07' E 025°14'1 1.7
2015-Jun-30 15:33N 37°09' E 025°15'8 7.8
2015-Jun-30 14:33N 37°01' E 025°15'18 0.6
2015-Jun-29 06:32N 36°57' E 025°37'11 8.9
2015-Jun-29 05:21N 36°57' E 025°24'911.3
2015-Jun-29 04:33N 37°05' E 025°19'1111.4
2015-Jun-29 03:33N 37°16' E 025°22'9 8.8
2015-Jun-29 02:31N 37°25' E 025°20'0 0.0
2015-Jun-29 01:22N 37°25' E 025°20'0 0.0
2015-Jun-29 00:31N 37°25' E 025°20'0 0.0
2015-Jun-28 23:31N 37°25' E 025°20'0 0.0
2015-Jun-28 22:31N 37°25' E 025°20'0 0.0
2015-Jun-28 21:28N 37°25' E 025°20'0 0.0
2015-Jun-28 20:31N 37°25' E 025°20'0 0.0
2015-Jun-28 19:10N 37°25' E 025°20'0 0.0
2015-Jun-28 18:31N 37°25' E 025°20'0 0.0
2015-Jun-28 17:31N 37°25' E 025°20'0 0.0
2015-Jun-28 16:28N 37°25' E 025°20'0 0.0
2015-Jun-28 15:28N 37°25' E 025°20'0 0.0
2015-Jun-28 14:31N 37°25' E 025°20'0 0.0
2015-Jun-28 13:31N 37°25' E 025°20'0 0.0
2015-Jun-28 12:31N 37°25' E 025°20'0 0.0
2015-Jun-28 11:31N 37°25' E 025°20'0 0.0
2015-Jun-28 10:31N 37°25' E 025°20'0 0.0
2015-Jun-28 09:25N 37°25' E 025°20'0 0.0
2015-Jun-28 08:28N 37°25' E 025°20'0 0.0
2015-Jun-28 07:31N 37°25' E 025°20'0 0.0
2015-Jun-28 06:31N 37°25' E 025°20'0 0.0
2015-Jun-28 05:31N 37°25' E 025°20'0 0.0
2015-Jun-28 04:31N 37°25' E 025°20'0 0.0
2015-Jun-28 03:31N 37°25' E 025°20'0 0.0
2015-Jun-28 02:34N 37°25' E 025°20'0 0.0
2015-Jun-28 01:31N 37°25' E 025°20'0 0.0
2015-Jun-28 00:31N 37°25' E 025°20'0 0.0
2015-Jun-27 23:31N 37°25' E 025°20'0 0.0
2015-Jun-27 22:31N 37°25' E 025°20'0 0.0
2015-Jun-27 21:31N 37°25' E 025°20'0 0.0
2015-Jun-27 20:34N 37°25' E 025°20'0 0.0
2015-Jun-27 19:28N 37°25' E 025°20'0 0.0
2015-Jun-27 18:34N 37°25' E 025°20'0 0.0
2015-Jun-27 17:34N 37°25' E 025°20'0 0.0
2015-Jun-27 16:34N 37°25' E 025°20'0 0.0
2015-Jun-27 15:34N 37°25' E 025°20'0 0.0
2015-Jun-27 14:28N 37°25' E 025°20'0 0.0
2015-Jun-27 13:34N 37°25' E 025°20'0 0.0
2015-Jun-27 12:28N 37°25' E 025°20'0 0.0
2015-Jun-27 11:28N 37°25' E 025°20'0 0.0
2015-Jun-27 10:34N 37°25' E 025°20'0 0.0
2015-Jun-27 09:34N 37°25' E 025°20'0 0.0
2015-Jun-27 08:31N 37°25' E 025°20'0 0.0
2015-Jun-27 07:34N 37°25' E 025°20'0 0.0
2015-Jun-27 06:31N 37°25' E 025°20'0 0.0
2015-Jun-27 05:34N 37°25' E 025°20'0 0.0
2015-Jun-27 04:34N 37°25' E 025°20'0 0.0
2015-Jun-27 03:34N 37°25' E 025°20'0 0.0
2015-Jun-27 02:34N 37°25' E 025°20'0 0.0
2015-Jun-27 01:31N 37°25' E 025°20'0 0.0
2015-Jun-27 00:27N 37°25' E 025°20'0 0.0
2015-Jun-26 23:34N 37°25' E 025°20'0 0.0
2015-Jun-26 22:33N 37°25' E 025°20'0 0.0
2015-Jun-26 21:27N 37°25' E 025°20'0 0.0
2015-Jun-26 20:33N 37°25' E 025°20'0 0.0
2015-Jun-26 19:33N 37°25' E 025°20'0 0.0
2015-Jun-26 18:33N 37°25' E 025°20'0 0.0
2015-Jun-26 17:27N 37°25' E 025°20'0 0.0
2015-Jun-26 16:33N 37°25' E 025°20'1 1.2
2015-Jun-26 15:33N 37°24' E 025°19'5 3.9
2015-Jun-26 14:11N 37°29' E 025°22'0 0.0
2015-Jun-26 13:29N 37°29' E 025°22'0 0.0
2015-Jun-26 12:30N 37°29' E 025°22'0 0.0
2015-Jun-26 10:17N 37°29' E 025°22'0 0.0
2015-Jun-26 09:29N 37°29' E 025°22'0 0.0
2015-Jun-26 08:17N 37°29' E 025°22'0 0.0
2015-Jun-26 07:32N 37°29' E 025°22'0 0.0
2015-Jun-26 06:33N 37°29' E 025°22'3 3.4
2015-Jun-26 05:33N 37°28' E 025°18'4 3.6
2015-Jun-26 04:33N 37°25' E 025°20'0 0.0
2015-Jun-26 03:33N 37°25' E 025°20'0 0.0
2015-Jun-26 02:33N 37°25' E 025°20'0 0.0
2015-Jun-26 01:33N 37°25' E 025°20'0 0.0
2015-Jun-26 00:33N 37°25' E 025°20'0 0.0
2015-Jun-25 23:33N 37°25' E 025°20'0 0.0
2015-Jun-25 22:33N 37°25' E 025°20'0 0.0
2015-Jun-25 21:33N 37°25' E 025°20'0 0.0
2015-Jun-25 20:33N 37°25' E 025°20'0 0.0
2015-Jun-25 19:33N 37°25' E 025°20'0 0.0
2015-Jun-25 18:33N 37°25' E 025°20'0 0.0
2015-Jun-25 17:33N 37°25' E 025°20'0 0.0
2015-Jun-25 16:33N 37°25' E 025°20'0 0.0
2015-Jun-25 15:33N 37°25' E 025°20'0 0.0
2015-Jun-25 14:33N 37°25' E 025°20'0 0.0
2015-Jun-25 13:33N 37°25' E 025°20'0 0.0
2015-Jun-25 12:33N 37°25' E 025°20'0 0.0
2015-Jun-25 11:33N 37°25' E 025°20'0 0.0
2015-Jun-25 10:33N 37°25' E 025°20'0 0.0
2015-Jun-25 09:33N 37°25' E 025°20'0 0.0
2015-Jun-25 08:33N 37°25' E 025°20'0 0.0
2015-Jun-25 07:33N 37°25' E 025°20'2 1.9
2015-Jun-25 06:34N 37°24' E 025°18'3 3.2
2015-Jun-25 05:33N 37°27' E 025°20'0 0.0
2015-Jun-25 04:33N 37°27' E 025°20'0 0.0
2015-Jun-25 03:33N 37°27' E 025°20'0 0.0
2015-Jun-25 02:33N 37°27' E 025°20'0 0.0
2015-Jun-25 01:33N 37°27' E 025°20'0 0.0
2015-Jun-25 00:33N 37°27' E 025°20'0 0.0
2015-Jun-24 23:33N 37°27' E 025°20'0 0.0
2015-Jun-24 22:33N 37°27' E 025°20'0 0.0
2015-Jun-24 21:30N 37°27' E 025°20'0 0.0
2015-Jun-24 20:33N 37°27' E 025°20'0 0.0
2015-Jun-24 19:33N 37°27' E 025°20'0 0.0
2015-Jun-24 18:30N 37°27' E 025°20'0 0.0
2015-Jun-24 17:33N 37°27' E 025°20'0 0.0
2015-Jun-24 16:33N 37°27' E 025°20'0 0.3
2015-Jun-24 15:33N 37°27' E 025°19'6 5.5
2015-Jun-24 14:33N 37°23' E 025°14'0 0.0
2015-Jun-24 13:33N 37°23' E 025°14'0 0.0
2015-Jun-24 12:33N 37°23' E 025°14'0 0.0
2015-Jun-24 11:33N 37°23' E 025°14'0 0.0
2015-Jun-24 10:33N 37°23' E 025°14'0 0.0
2015-Jun-24 09:28N 37°23' E 025°14'0 0.0
2015-Jun-24 08:33N 37°23' E 025°14'0 0.0
2015-Jun-24 07:33N 37°23' E 025°14'0 0.0
2015-Jun-24 06:33N 37°23' E 025°14'0 0.0
2015-Jun-24 05:33N 37°23' E 025°14'7 6.6
2015-Jun-24 04:33N 37°17' E 025°16'1111.3
2015-Jun-24 03:33N 37°05' E 025°18'  
Track history (hours):
 
Tides and Currents Weather Stations Pressure Air Temp Water Temp Dewpoint Dewpoint Depression Visibility Wind Speed Wind Dir Waves Ship Positions

Mazy

Last reported at 2015-Jul-02 07:32 UTC. Time now 2015-Jul-02 08:05 UTC.
Position N 37°25' E 025°21'.

Length 39 m; draft 2.3 m.

MMSI: 229043000.

Date/timePositionNaut miles runAvg speedWind from/ knotsBaromVisibWave heightAir tempDewpointWater temp
2015-Jul-02 07:32N 37°25' E 025°21'0 0.0
2015-Jul-02 06:32N 37°25' E 025°21'0 0.0
2015-Jul-02 05:32N 37°25' E 025°21'0 0.0
2015-Jul-02 04:32N 37°25' E 025°21'0 0.0
2015-Jul-02 03:32N 37°25' E 025°21'0 0.0
2015-Jul-02 02:32N 37°25' E 025°21'0 0.0
2015-Jul-02 01:32N 37°25' E 025°21'0 0.0
2015-Jul-02 00:32N 37°25' E 025°21'0 0.0
2015-Jul-01 23:32N 37°25' E 025°21'0 0.0
2015-Jul-01 22:32N 37°25' E 025°21'0 0.0
2015-Jul-01 21:32N 37°25' E 025°21'0 0.0
2015-Jul-01 20:32N 37°25' E 025°21'0 0.0
2015-Jul-01 19:32N 37°25' E 025°21'0 0.0
2015-Jul-01 18:32N 37°25' E 025°21'0 0.0
2015-Jul-01 17:32N 37°25' E 025°21'0 0.0
2015-Jul-01 16:32N 37°25' E 025°21'0 0.0
2015-Jul-01 15:32N 37°25' E 025°21'0 0.0
2015-Jul-01 14:32N 37°25' E 025°21'0 0.0
2015-Jul-01 13:32N 37°25' E 025°21'0 0.0
2015-Jul-01 12:32N 37°25' E 025°21'0 0.0
2015-Jul-01 11:32N 37°25' E 025°21'0 0.0
2015-Jul-01 10:32N 37°25' E 025°21'0 0.0
2015-Jul-01 09:29N 37°25' E 025°21'0 0.0
2015-Jul-01 08:32N 37°25' E 025°21'0 0.0
2015-Jul-01 07:33N 37°25' E 025°21'3 3.4
2015-Jul-01 06:33N 37°23' E 025°18'10 9.9
2015-Jul-01 05:33N 37°13' E 025°14'6 5.4
2015-Jul-01 04:32N 37°07' E 025°14'0 0.0
2015-Jul-01 03:32N 37°07' E 025°14'0 0.0
2015-Jul-01 02:32N 37°07' E 025°14'0 0.0
2015-Jul-01 01:32N 37°07' E 025°14'0 0.0
2015-Jul-01 00:32N 37°07' E 025°14'0 0.0
2015-Jun-30 23:32N 37°07' E 025°14'0 0.0
2015-Jun-30 22:32N 37°07' E 025°14'0 0.0
2015-Jun-30 21:32N 37°07' E 025°14'0 0.0
2015-Jun-30 20:32N 37°07' E 025°14'0 0.0
2015-Jun-30 19:32N 37°07' E 025°14'0 0.0
2015-Jun-30 18:32N 37°07' E 025°14'0 0.0
2015-Jun-30 17:32N 37°07' E 025°14'0 0.0
2015-Jun-30 16:26N 37°07' E 025°14'1 1.7
2015-Jun-30 15:33N 37°09' E 025°15'8 7.8
2015-Jun-30 14:33N 37°01' E 025°15'18 0.6
2015-Jun-29 06:32N 36°57' E 025°37'11 8.9
2015-Jun-29 05:21N 36°57' E 025°24'911.3
2015-Jun-29 04:33N 37°05' E 025°19'1111.4
2015-Jun-29 03:33N 37°16' E 025°22'9 8.8
2015-Jun-29 02:31N 37°25' E 025°20'0 0.0
2015-Jun-29 01:22N 37°25' E 025°20'0 0.0
2015-Jun-29 00:31N 37°25' E 025°20'0 0.0
2015-Jun-28 23:31N 37°25' E 025°20'0 0.0
2015-Jun-28 22:31N 37°25' E 025°20'0 0.0
2015-Jun-28 21:28N 37°25' E 025°20'0 0.0
2015-Jun-28 20:31N 37°25' E 025°20'0 0.0
2015-Jun-28 19:10N 37°25' E 025°20'0 0.0
2015-Jun-28 18:31N 37°25' E 025°20'0 0.0
2015-Jun-28 17:31N 37°25' E 025°20'0 0.0
2015-Jun-28 16:28N 37°25' E 025°20'0 0.0
2015-Jun-28 15:28N 37°25' E 025°20'0 0.0
2015-Jun-28 14:31N 37°25' E 025°20'0 0.0
2015-Jun-28 13:31N 37°25' E 025°20'0 0.0
2015-Jun-28 12:31N 37°25' E 025°20'0 0.0
2015-Jun-28 11:31N 37°25' E 025°20'0 0.0
2015-Jun-28 10:31N 37°25' E 025°20'0 0.0
2015-Jun-28 09:25N 37°25' E 025°20'0 0.0
2015-Jun-28 08:28N 37°25' E 025°20'0 0.0
2015-Jun-28 07:31N 37°25' E 025°20'0 0.0
2015-Jun-28 06:31N 37°25' E 025°20'0 0.0
2015-Jun-28 05:31N 37°25' E 025°20'0 0.0
2015-Jun-28 04:31N 37°25' E 025°20'0 0.0
2015-Jun-28 03:31N 37°25' E 025°20'0 0.0
2015-Jun-28 02:34N 37°25' E 025°20'0 0.0
2015-Jun-28 01:31N 37°25' E 025°20'0 0.0
2015-Jun-28 00:31N 37°25' E 025°20'0 0.0
2015-Jun-27 23:31N 37°25' E 025°20'0 0.0
2015-Jun-27 22:31N 37°25' E 025°20'0 0.0
2015-Jun-27 21:31N 37°25' E 025°20'0 0.0
2015-Jun-27 20:34N 37°25' E 025°20'0 0.0
2015-Jun-27 19:28N 37°25' E 025°20'0 0.0
2015-Jun-27 18:34N 37°25' E 025°20'0 0.0
2015-Jun-27 17:34N 37°25' E 025°20'0 0.0
2015-Jun-27 16:34N 37°25' E 025°20'0 0.0
2015-Jun-27 15:34N 37°25' E 025°20'0 0.0
2015-Jun-27 14:28N 37°25' E 025°20'0 0.0
2015-Jun-27 13:34N 37°25' E 025°20'0 0.0
2015-Jun-27 12:28N 37°25' E 025°20'0 0.0
2015-Jun-27 11:28N 37°25' E 025°20'0 0.0
2015-Jun-27 10:34N 37°25' E 025°20'0 0.0
2015-Jun-27 09:34N 37°25' E 025°20'0 0.0
2015-Jun-27 08:31N 37°25' E 025°20'0 0.0
2015-Jun-27 07:34N 37°25' E 025°20'0 0.0
2015-Jun-27 06:31N 37°25' E 025°20'0 0.0
2015-Jun-27 05:34N 37°25' E 025°20'0 0.0
2015-Jun-27 04:34N 37°25' E 025°20'0 0.0
2015-Jun-27 03:34N 37°25' E 025°20'0 0.0
2015-Jun-27 02:34N 37°25' E 025°20'0 0.0
2015-Jun-27 01:31N 37°25' E 025°20'0 0.0
2015-Jun-27 00:27N 37°25' E 025°20'0 0.0
2015-Jun-26 23:34N 37°25' E 025°20'0 0.0
2015-Jun-26 22:33N 37°25' E 025°20'0 0.0
2015-Jun-26 21:27N 37°25' E 025°20'0 0.0
2015-Jun-26 20:33N 37°25' E 025°20'0 0.0
2015-Jun-26 19:33N 37°25' E 025°20'0 0.0
2015-Jun-26 18:33N 37°25' E 025°20'0 0.0
2015-Jun-26 17:27N 37°25' E 025°20'0 0.0
2015-Jun-26 16:33N 37°25' E 025°20'1 1.2
2015-Jun-26 15:33N 37°24' E 025°19'5 3.9
2015-Jun-26 14:11N 37°29' E 025°22'0 0.0
2015-Jun-26 13:29N 37°29' E 025°22'0 0.0
2015-Jun-26 12:30N 37°29' E 025°22'0 0.0
2015-Jun-26 10:17N 37°29' E 025°22'0 0.0
2015-Jun-26 09:29N 37°29' E 025°22'0 0.0
2015-Jun-26 08:17N 37°29' E 025°22'0 0.0
2015-Jun-26 07:32N 37°29' E 025°22'0 0.0
2015-Jun-26 06:33N 37°29' E 025°22'3 3.4
2015-Jun-26 05:33N 37°28' E 025°18'4 3.6
2015-Jun-26 04:33N 37°25' E 025°20'0 0.0
2015-Jun-26 03:33N 37°25' E 025°20'0 0.0
2015-Jun-26 02:33N 37°25' E 025°20'0 0.0
2015-Jun-26 01:33N 37°25' E 025°20'0 0.0
2015-Jun-26 00:33N 37°25' E 025°20'0 0.0
2015-Jun-25 23:33N 37°25' E 025°20'0 0.0
2015-Jun-25 22:33N 37°25' E 025°20'0 0.0
2015-Jun-25 21:33N 37°25' E 025°20'0 0.0
2015-Jun-25 20:33N 37°25' E 025°20'0 0.0
2015-Jun-25 19:33N 37°25' E 025°20'0 0.0
2015-Jun-25 18:33N 37°25' E 025°20'0 0.0
2015-Jun-25 17:33N 37°25' E 025°20'0 0.0
2015-Jun-25 16:33N 37°25' E 025°20'0 0.0
2015-Jun-25 15:33N 37°25' E 025°20'0 0.0
2015-Jun-25 14:33N 37°25' E 025°20'0 0.0
2015-Jun-25 13:33N 37°25' E 025°20'0 0.0
2015-Jun-25 12:33N 37°25' E 025°20'0 0.0
2015-Jun-25 11:33N 37°25' E 025°20'0 0.0
2015-Jun-25 10:33N 37°25' E 025°20'0 0.0
2015-Jun-25 09:33N 37°25' E 025°20'0 0.0
2015-Jun-25 08:33N 37°25' E 025°20'0 0.0
2015-Jun-25 07:33N 37°25' E 025°20'2 1.9
2015-Jun-25 06:34N 37°24' E 025°18'3 3.2
2015-Jun-25 05:33N 37°27' E 025°20'0 0.0
2015-Jun-25 04:33N 37°27' E 025°20'0 0.0
2015-Jun-25 03:33N 37°27' E 025°20'0 0.0
2015-Jun-25 02:33N 37°27' E 025°20'0 0.0
2015-Jun-25 01:33N 37°27' E 025°20'0 0.0
2015-Jun-25 00:33N 37°27' E 025°20'0 0.0
2015-Jun-24 23:33N 37°27' E 025°20'0 0.0
2015-Jun-24 22:33N 37°27' E 025°20'0 0.0
2015-Jun-24 21:30N 37°27' E 025°20'0 0.0
2015-Jun-24 20:33N 37°27' E 025°20'0 0.0
2015-Jun-24 19:33N 37°27' E 025°20'0 0.0
2015-Jun-24 18:30N 37°27' E 025°20'0 0.0
2015-Jun-24 17:33N 37°27' E 025°20'0 0.0
2015-Jun-24 16:33N 37°27' E 025°20'0 0.3
2015-Jun-24 15:33N 37°27' E 025°19'6 5.5
2015-Jun-24 14:33N 37°23' E 025°14'0 0.0
2015-Jun-24 13:33N 37°23' E 025°14'0 0.0
2015-Jun-24 12:33N 37°23' E 025°14'0 0.0
2015-Jun-24 11:33N 37°23' E 025°14'0 0.0
2015-Jun-24 10:33N 37°23' E 025°14'0 0.0
2015-Jun-24 09:28N 37°23' E 025°14'0 0.0
2015-Jun-24 08:33N 37°23' E 025°14'0 0.0
2015-Jun-24 07:33N 37°23' E 025°14'0 0.0
2015-Jun-24 06:33N 37°23' E 025°14'0 0.0
2015-Jun-24 05:33N 37°23' E 025°14'7 6.6
2015-Jun-24 04:33N 37°17' E 025°16'1111.3
2015-Jun-24 03:33N 37°05' E 025°18'  

Dump ship's entire track history